sensor_id;sensor_type;location;lat;lon;timestamp;P1;durP1;ratioP1;P2;durP2;ratioP2
21546;SDS011;41275;51.912;4.388;2024-02-28T00:03:15;6.35;;;1.38;;
21546;SDS011;41275;51.912;4.388;2024-02-28T00:08:36;4.53;;;1.55;;
21546;SDS011;41275;51.912;4.388;2024-02-28T00:13:58;2.30;;;1.20;;
21546;SDS011;41275;51.912;4.388;2024-02-28T00:19:21;2.20;;;1.30;;
21546;SDS011;41275;51.912;4.388;2024-02-28T00:24:43;5.75;;;1.50;;
21546;SDS011;41275;51.912;4.388;2024-02-28T00:30:04;6.07;;;1.27;;
21546;SDS011;41275;51.912;4.388;2024-02-28T00:35:27;2.58;;;1.30;;
21546;SDS011;41275;51.912;4.388;2024-02-28T00:40:49;3.20;;;1.60;;
21546;SDS011;41275;51.912;4.388;2024-02-28T00:46:11;3.05;;;1.45;;
21546;SDS011;41275;51.912;4.388;2024-02-28T00:51:33;4.82;;;1.80;;
21546;SDS011;41275;51.912;4.388;2024-02-28T00:56:54;4.67;;;1.70;;
21546;SDS011;41275;51.912;4.388;2024-02-28T01:02:15;2.47;;;1.50;;
21546;SDS011;41275;51.912;4.388;2024-02-28T01:07:37;4.27;;;2.00;;
21546;SDS011;41275;51.912;4.388;2024-02-28T01:12:58;6.95;;;2.05;;
21546;SDS011;41275;51.912;4.388;2024-02-28T01:18:19;6.60;;;1.75;;
21546;SDS011;41275;51.912;4.388;2024-02-28T01:23:40;4.30;;;1.88;;
21546;SDS011;41275;51.912;4.388;2024-02-28T01:29:02;4.25;;;2.03;;
21546;SDS011;41275;51.912;4.388;2024-02-28T01:34:23;5.80;;;2.03;;
21546;SDS011;41275;51.912;4.388;2024-02-28T01:39:44;4.78;;;2.05;;
21546;SDS011;41275;51.912;4.388;2024-02-28T01:45:06;4.45;;;2.33;;
21546;SDS011;41275;51.912;4.388;2024-02-28T01:50:47;5.43;;;2.40;;
21546;SDS011;41275;51.912;4.388;2024-02-28T01:56:08;8.20;;;3.10;;
21546;SDS011;41275;51.912;4.388;2024-02-28T02:01:31;5.40;;;2.90;;
21546;SDS011;41275;51.912;4.388;2024-02-28T02:06:52;6.35;;;3.08;;
21546;SDS011;41275;51.912;4.388;2024-02-28T02:12:18;4.83;;;2.73;;
21546;SDS011;41275;51.912;4.388;2024-02-28T02:17:40;4.40;;;2.00;;
21546;SDS011;41275;51.912;4.388;2024-02-28T02:23:01;5.87;;;2.43;;
21546;SDS011;41275;51.912;4.388;2024-02-28T02:28:22;4.80;;;2.70;;
21546;SDS011;41275;51.912;4.388;2024-02-28T02:33:44;5.82;;;2.65;;
21546;SDS011;41275;51.912;4.388;2024-02-28T02:39:05;9.27;;;2.58;;
21546;SDS011;41275;51.912;4.388;2024-02-28T02:44:28;7.13;;;2.80;;
21546;SDS011;41275;51.912;4.388;2024-02-28T02:49:50;5.82;;;2.53;;
21546;SDS011;41275;51.912;4.388;2024-02-28T02:55:11;6.32;;;2.67;;
21546;SDS011;41275;51.912;4.388;2024-02-28T03:00:32;7.43;;;2.72;;
21546;SDS011;41275;51.912;4.388;2024-02-28T03:05:54;7.15;;;2.63;;
21546;SDS011;41275;51.912;4.388;2024-02-28T03:11:16;7.88;;;2.88;;
21546;SDS011;41275;51.912;4.388;2024-02-28T03:16:40;7.35;;;3.25;;
21546;SDS011;41275;51.912;4.388;2024-02-28T03:22:03;6.57;;;3.20;;
21546;SDS011;41275;51.912;4.388;2024-02-28T03:27:24;10.15;;;3.60;;
21546;SDS011;41275;51.912;4.388;2024-02-28T03:32:45;8.25;;;3.55;;
21546;SDS011;41275;51.912;4.388;2024-02-28T03:38:06;6.40;;;3.65;;
21546;SDS011;41275;51.912;4.388;2024-02-28T03:43:27;7.45;;;3.78;;
21546;SDS011;41275;51.912;4.388;2024-02-28T03:48:49;6.70;;;3.83;;
21546;SDS011;41275;51.912;4.388;2024-02-28T03:54:11;6.53;;;3.83;;
21546;SDS011;41275;51.912;4.388;2024-02-28T03:59:32;10.10;;;4.95;;
21546;SDS011;41275;51.912;4.388;2024-02-28T04:04:53;11.30;;;5.03;;
21546;SDS011;41275;51.912;4.388;2024-02-28T04:10:14;9.98;;;5.18;;
21546;SDS011;41275;51.912;4.388;2024-02-28T04:15:36;14.13;;;5.17;;
21546;SDS011;41275;51.912;4.388;2024-02-28T04:20:58;8.37;;;4.87;;
21546;SDS011;41275;51.912;4.388;2024-02-28T04:26:19;10.07;;;5.03;;
21546;SDS011;41275;51.912;4.388;2024-02-28T04:31:41;10.25;;;5.45;;
21546;SDS011;41275;51.912;4.388;2024-02-28T04:37:02;11.95;;;5.10;;
21546;SDS011;41275;51.912;4.388;2024-02-28T04:42:23;11.35;;;5.00;;
21546;SDS011;41275;51.912;4.388;2024-02-28T04:47:44;10.50;;;4.63;;
21546;SDS011;41275;51.912;4.388;2024-02-28T04:53:05;10.45;;;4.80;;
21546;SDS011;41275;51.912;4.388;2024-02-28T04:58:27;11.10;;;4.97;;
21546;SDS011;41275;51.912;4.388;2024-02-28T05:03:48;8.38;;;4.53;;
21546;SDS011;41275;51.912;4.388;2024-02-28T05:09:09;10.98;;;5.18;;
21546;SDS011;41275;51.912;4.388;2024-02-28T05:14:31;9.27;;;5.37;;
21546;SDS011;41275;51.912;4.388;2024-02-28T05:19:52;12.57;;;5.77;;
21546;SDS011;41275;51.912;4.388;2024-02-28T05:25:13;12.02;;;5.15;;
21546;SDS011;41275;51.912;4.388;2024-02-28T05:30:34;10.67;;;5.47;;
21546;SDS011;41275;51.912;4.388;2024-02-28T05:35:55;11.40;;;5.47;;
21546;SDS011;41275;51.912;4.388;2024-02-28T05:41:17;8.50;;;5.03;;
21546;SDS011;41275;51.912;4.388;2024-02-28T05:46:39;10.80;;;5.78;;
21546;SDS011;41275;51.912;4.388;2024-02-28T05:52:00;10.65;;;5.38;;
21546;SDS011;41275;51.912;4.388;2024-02-28T05:57:22;10.98;;;5.68;;
21546;SDS011;41275;51.912;4.388;2024-02-28T06:02:44;17.40;;;5.95;;
21546;SDS011;41275;51.912;4.388;2024-02-28T06:08:05;12.20;;;5.60;;
21546;SDS011;41275;51.912;4.388;2024-02-28T06:13:27;9.20;;;5.23;;
21546;SDS011;41275;51.912;4.388;2024-02-28T06:18:49;14.25;;;5.60;;
21546;SDS011;41275;51.912;4.388;2024-02-28T06:24:11;11.48;;;5.72;;
21546;SDS011;41275;51.912;4.388;2024-02-28T06:29:34;10.88;;;5.18;;
21546;SDS011;41275;51.912;4.388;2024-02-28T06:34:56;11.93;;;5.25;;
21546;SDS011;41275;51.912;4.388;2024-02-28T06:40:17;12.73;;;5.47;;
21546;SDS011;41275;51.912;4.388;2024-02-28T06:45:39;9.37;;;5.50;;
21546;SDS011;41275;51.912;4.388;2024-02-28T06:51:00;12.23;;;5.77;;
21546;SDS011;41275;51.912;4.388;2024-02-28T06:56:21;11.83;;;5.57;;
21546;SDS011;41275;51.912;4.388;2024-02-28T07:01:42;9.23;;;5.03;;
21546;SDS011;41275;51.912;4.388;2024-02-28T07:07:04;11.27;;;5.57;;
21546;SDS011;41275;51.912;4.388;2024-02-28T07:12:25;11.70;;;6.10;;
21546;SDS011;41275;51.912;4.388;2024-02-28T07:17:47;15.45;;;5.70;;
21546;SDS011;41275;51.912;4.388;2024-02-28T07:23:08;11.98;;;6.03;;
21546;SDS011;41275;51.912;4.388;2024-02-28T07:28:30;16.80;;;6.60;;
21546;SDS011;41275;51.912;4.388;2024-02-28T07:33:52;10.38;;;6.15;;
21546;SDS011;41275;51.912;4.388;2024-02-28T07:39:13;14.88;;;6.60;;
21546;SDS011;41275;51.912;4.388;2024-02-28T07:44:35;12.48;;;6.10;;
21546;SDS011;41275;51.912;4.388;2024-02-28T07:49:56;17.55;;;6.72;;
21546;SDS011;41275;51.912;4.388;2024-02-28T07:55:17;14.20;;;6.67;;
21546;SDS011;41275;51.912;4.388;2024-02-28T08:00:40;13.48;;;6.05;;
21546;SDS011;41275;51.912;4.388;2024-02-28T08:06:02;10.85;;;5.65;;
21546;SDS011;41275;51.912;4.388;2024-02-28T08:11:24;13.30;;;6.03;;
21546;SDS011;41275;51.912;4.388;2024-02-28T08:16:45;14.25;;;6.35;;
21546;SDS011;41275;51.912;4.388;2024-02-28T08:22:07;13.75;;;6.20;;
21546;SDS011;41275;51.912;4.388;2024-02-28T08:27:28;13.23;;;6.45;;
21546;SDS011;41275;51.912;4.388;2024-02-28T08:32:49;14.60;;;6.45;;
21546;SDS011;41275;51.912;4.388;2024-02-28T08:38:10;12.38;;;6.30;;
21546;SDS011;41275;51.912;4.388;2024-02-28T08:43:32;14.60;;;6.60;;
21546;SDS011;41275;51.912;4.388;2024-02-28T08:48:54;14.30;;;6.47;;
21546;SDS011;41275;51.912;4.388;2024-02-28T08:54:15;11.40;;;6.55;;
21546;SDS011;41275;51.912;4.388;2024-02-28T08:59:37;16.10;;;6.97;;
21546;SDS011;41275;51.912;4.388;2024-02-28T09:04:58;12.77;;;6.38;;
21546;SDS011;41275;51.912;4.388;2024-02-28T09:10:19;14.83;;;7.40;;
21546;SDS011;41275;51.912;4.388;2024-02-28T09:15:44;14.70;;;7.20;;
21546;SDS011;41275;51.912;4.388;2024-02-28T09:21:07;17.27;;;7.80;;
21546;SDS011;41275;51.912;4.388;2024-02-28T09:26:28;15.70;;;7.82;;
21546;SDS011;41275;51.912;4.388;2024-02-28T09:31:50;17.67;;;8.93;;
21546;SDS011;41275;51.912;4.388;2024-02-28T09:37:11;16.45;;;7.45;;
21546;SDS011;41275;51.912;4.388;2024-02-28T09:42:32;16.40;;;7.50;;
21546;SDS011;41275;51.912;4.388;2024-02-28T09:47:54;12.43;;;7.63;;
21546;SDS011;41275;51.912;4.388;2024-02-28T09:53:16;15.38;;;7.15;;
21546;SDS011;41275;51.912;4.388;2024-02-28T09:58:38;15.75;;;7.88;;
21546;SDS011;41275;51.912;4.388;2024-02-28T10:03:59;15.68;;;7.82;;
21546;SDS011;41275;51.912;4.388;2024-02-28T10:09:23;17.13;;;8.13;;
21546;SDS011;41275;51.912;4.388;2024-02-28T10:14:44;18.65;;;8.25;;
21546;SDS011;41275;51.912;4.388;2024-02-28T10:20:06;14.37;;;8.40;;
21546;SDS011;41275;51.912;4.388;2024-02-28T10:25:27;16.58;;;8.57;;
21546;SDS011;41275;51.912;4.388;2024-02-28T10:30:50;15.82;;;7.50;;
21546;SDS011;41275;51.912;4.388;2024-02-28T10:36:11;14.18;;;7.53;;
21546;SDS011;41275;51.912;4.388;2024-02-28T10:41:32;14.90;;;7.47;;
21546;SDS011;41275;51.912;4.388;2024-02-28T10:46:55;17.60;;;6.73;;
21546;SDS011;41275;51.912;4.388;2024-02-28T10:52:18;13.73;;;7.27;;
21546;SDS011;41275;51.912;4.388;2024-02-28T10:57:42;15.10;;;6.60;;
21546;SDS011;41275;51.912;4.388;2024-02-28T11:03:07;12.45;;;6.35;;
21546;SDS011;41275;51.912;4.388;2024-02-28T11:08:30;12.60;;;6.53;;
21546;SDS011;41275;51.912;4.388;2024-02-28T11:13:55;14.15;;;6.07;;
21546;SDS011;41275;51.912;4.388;2024-02-28T11:19:20;18.93;;;7.43;;
21546;SDS011;41275;51.912;4.388;2024-02-28T11:24:42;16.92;;;7.63;;
21546;SDS011;41275;51.912;4.388;2024-02-28T11:30:05;22.70;;;9.03;;
21546;SDS011;41275;51.912;4.388;2024-02-28T11:35:27;18.17;;;9.32;;
21546;SDS011;41275;51.912;4.388;2024-02-28T11:40:52;23.80;;;11.50;;
21546;SDS011;41275;51.912;4.388;2024-02-28T11:46:14;26.15;;;12.57;;
21546;SDS011;41275;51.912;4.388;2024-02-28T11:51:36;25.08;;;12.65;;
21546;SDS011;41275;51.912;4.388;2024-02-28T11:56:57;20.38;;;10.50;;
21546;SDS011;41275;51.912;4.388;2024-02-28T12:02:19;22.95;;;10.60;;
21546;SDS011;41275;51.912;4.388;2024-02-28T12:07:46;23.20;;;10.73;;
21546;SDS011;41275;51.912;4.388;2024-02-28T12:13:07;23.20;;;10.57;;
21546;SDS011;41275;51.912;4.388;2024-02-28T12:18:30;27.57;;;13.00;;
21546;SDS011;41275;51.912;4.388;2024-02-28T12:23:51;27.77;;;11.55;;
21546;SDS011;41275;51.912;4.388;2024-02-28T12:29:12;19.95;;;9.80;;
21546;SDS011;41275;51.912;4.388;2024-02-28T12:34:34;24.77;;;11.03;;
21546;SDS011;41275;51.912;4.388;2024-02-28T12:39:55;18.45;;;9.00;;
21546;SDS011;41275;51.912;4.388;2024-02-28T12:45:16;16.70;;;8.57;;
21546;SDS011;41275;51.912;4.388;2024-02-28T12:50:37;20.27;;;8.80;;
21546;SDS011;41275;51.912;4.388;2024-02-28T12:55:58;18.30;;;8.98;;
21546;SDS011;41275;51.912;4.388;2024-02-28T13:01:23;17.17;;;9.32;;
21546;SDS011;41275;51.912;4.388;2024-02-28T13:06:44;18.98;;;9.20;;
21546;SDS011;41275;51.912;4.388;2024-02-28T13:12:05;23.17;;;10.40;;
21546;SDS011;41275;51.912;4.388;2024-02-28T13:17:28;18.58;;;10.05;;
21546;SDS011;41275;51.912;4.388;2024-02-28T13:22:49;19.67;;;10.70;;
21546;SDS011;41275;51.912;4.388;2024-02-28T13:28:11;20.73;;;11.17;;
21546;SDS011;41275;51.912;4.388;2024-02-28T13:33:33;24.08;;;11.45;;
21546;SDS011;41275;51.912;4.388;2024-02-28T13:38:56;21.23;;;10.93;;
21546;SDS011;41275;51.912;4.388;2024-02-28T13:44:18;21.33;;;11.25;;
21546;SDS011;41275;51.912;4.388;2024-02-28T13:49:42;21.33;;;10.60;;
21546;SDS011;41275;51.912;4.388;2024-02-28T13:55:03;23.10;;;10.37;;
21546;SDS011;41275;51.912;4.388;2024-02-28T14:00:25;18.77;;;9.23;;
21546;SDS011;41275;51.912;4.388;2024-02-28T14:05:46;16.23;;;8.53;;
21546;SDS011;41275;51.912;4.388;2024-02-28T14:11:07;14.32;;;7.93;;
21546;SDS011;41275;51.912;4.388;2024-02-28T14:16:29;14.97;;;7.63;;
21546;SDS011;41275;51.912;4.388;2024-02-28T14:21:53;14.27;;;7.72;;
21546;SDS011;41275;51.912;4.388;2024-02-28T14:27:14;21.20;;;9.43;;
21546;SDS011;41275;51.912;4.388;2024-02-28T14:32:36;13.43;;;6.53;;
21546;SDS011;41275;51.912;4.388;2024-02-28T14:37:57;13.77;;;6.03;;
21546;SDS011;41275;51.912;4.388;2024-02-28T14:43:18;11.15;;;5.82;;
21546;SDS011;41275;51.912;4.388;2024-02-28T14:48:40;10.63;;;6.13;;
21546;SDS011;41275;51.912;4.388;2024-02-28T14:54:02;11.52;;;6.57;;
21546;SDS011;41275;51.912;4.388;2024-02-28T14:59:24;9.77;;;5.85;;
21546;SDS011;41275;51.912;4.388;2024-02-28T15:04:45;14.30;;;7.20;;
21546;SDS011;41275;51.912;4.388;2024-02-28T15:10:06;15.18;;;7.90;;
21546;SDS011;41275;51.912;4.388;2024-02-28T15:15:28;13.70;;;7.38;;
21546;SDS011;41275;51.912;4.388;2024-02-28T15:20:49;12.50;;;7.28;;
21546;SDS011;41275;51.912;4.388;2024-02-28T15:26:10;11.60;;;6.70;;
21546;SDS011;41275;51.912;4.388;2024-02-28T15:31:32;11.37;;;6.47;;
21546;SDS011;41275;51.912;4.388;2024-02-28T15:36:53;12.77;;;6.13;;
21546;SDS011;41275;51.912;4.388;2024-02-28T15:42:14;10.10;;;5.63;;
21546;SDS011;41275;51.912;4.388;2024-02-28T15:47:36;10.15;;;5.57;;
21546;SDS011;41275;51.912;4.388;2024-02-28T15:52:57;9.65;;;5.47;;
21546;SDS011;41275;51.912;4.388;2024-02-28T15:58:18;11.07;;;5.75;;
21546;SDS011;41275;51.912;4.388;2024-02-28T16:03:39;13.77;;;5.75;;
21546;SDS011;41275;51.912;4.388;2024-02-28T16:09:02;7.53;;;5.20;;
21546;SDS011;41275;51.912;4.388;2024-02-28T16:14:25;9.17;;;5.43;;
21546;SDS011;41275;51.912;4.388;2024-02-28T16:19:46;10.20;;;4.30;;
21546;SDS011;41275;51.912;4.388;2024-02-28T16:25:08;9.43;;;4.55;;
21546;SDS011;41275;51.912;4.388;2024-02-28T16:30:29;7.35;;;3.47;;
21546;SDS011;41275;51.912;4.388;2024-02-28T16:35:50;10.93;;;3.40;;
21546;SDS011;41275;51.912;4.388;2024-02-28T16:41:12;7.43;;;3.20;;
21546;SDS011;41275;51.912;4.388;2024-02-28T16:46:33;8.10;;;2.97;;
21546;SDS011;41275;51.912;4.388;2024-02-28T16:51:54;9.70;;;3.38;;
21546;SDS011;41275;51.912;4.388;2024-02-28T16:57:16;7.40;;;3.10;;
21546;SDS011;41275;51.912;4.388;2024-02-28T17:02:37;5.87;;;2.70;;
21546;SDS011;41275;51.912;4.388;2024-02-28T17:07:59;5.97;;;2.95;;
21546;SDS011;41275;51.912;4.388;2024-02-28T17:13:20;6.07;;;2.30;;
21546;SDS011;41275;51.912;4.388;2024-02-28T17:18:42;8.18;;;2.75;;
21546;SDS011;41275;51.912;4.388;2024-02-28T17:24:03;5.78;;;2.58;;
21546;SDS011;41275;51.912;4.388;2024-02-28T17:29:25;6.45;;;2.90;;
21546;SDS011;41275;51.912;4.388;2024-02-28T17:34:46;7.57;;;2.92;;
21546;SDS011;41275;51.912;4.388;2024-02-28T17:40:12;6.35;;;2.90;;
21546;SDS011;41275;51.912;4.388;2024-02-28T17:45:37;6.15;;;2.40;;
21546;SDS011;41275;51.912;4.388;2024-02-28T17:51:02;6.33;;;2.53;;
21546;SDS011;41275;51.912;4.388;2024-02-28T17:56:24;4.13;;;2.30;;
21546;SDS011;41275;51.912;4.388;2024-02-28T18:01:45;5.77;;;2.70;;
21546;SDS011;41275;51.912;4.388;2024-02-28T18:07:06;5.43;;;2.70;;
21546;SDS011;41275;51.912;4.388;2024-02-28T18:12:28;4.43;;;2.50;;
21546;SDS011;41275;51.912;4.388;2024-02-28T18:17:49;8.60;;;2.70;;
21546;SDS011;41275;51.912;4.388;2024-02-28T18:23:10;6.60;;;3.58;;
21546;SDS011;41275;51.912;4.388;2024-02-28T18:28:31;8.65;;;2.67;;
21546;SDS011;41275;51.912;4.388;2024-02-28T18:33:57;6.57;;;3.22;;
21546;SDS011;41275;51.912;4.388;2024-02-28T18:39:18;7.47;;;3.30;;
21546;SDS011;41275;51.912;4.388;2024-02-28T18:44:40;4.18;;;1.95;;
21546;SDS011;41275;51.912;4.388;2024-02-28T18:50:01;4.57;;;2.50;;
21546;SDS011;41275;51.912;4.388;2024-02-28T18:55:22;4.88;;;2.53;;
21546;SDS011;41275;51.912;4.388;2024-02-28T19:00:46;4.27;;;2.60;;
21546;SDS011;41275;51.912;4.388;2024-02-28T19:06:07;4.23;;;2.33;;
21546;SDS011;41275;51.912;4.388;2024-02-28T19:11:29;4.30;;;2.50;;
21546;SDS011;41275;51.912;4.388;2024-02-28T19:16:50;8.13;;;2.77;;
21546;SDS011;41275;51.912;4.388;2024-02-28T19:22:12;4.82;;;2.53;;
21546;SDS011;41275;51.912;4.388;2024-02-28T19:27:33;4.25;;;2.40;;
21546;SDS011;41275;51.912;4.388;2024-02-28T19:32:54;4.80;;;2.60;;
21546;SDS011;41275;51.912;4.388;2024-02-28T19:38:16;4.60;;;2.50;;
21546;SDS011;41275;51.912;4.388;2024-02-28T19:43:38;6.40;;;3.03;;
21546;SDS011;41275;51.912;4.388;2024-02-28T19:48:59;6.35;;;3.00;;
21546;SDS011;41275;51.912;4.388;2024-02-28T19:54:21;6.45;;;3.33;;
21546;SDS011;41275;51.912;4.388;2024-02-28T19:59:42;7.40;;;3.40;;
21546;SDS011;41275;51.912;4.388;2024-02-28T20:05:04;6.55;;;3.35;;
21546;SDS011;41275;51.912;4.388;2024-02-28T20:10:26;5.80;;;3.03;;
21546;SDS011;41275;51.912;4.388;2024-02-28T20:15:47;10.32;;;4.85;;
21546;SDS011;41275;51.912;4.388;2024-02-28T20:21:09;7.93;;;3.70;;
21546;SDS011;41275;51.912;4.388;2024-02-28T20:26:31;7.57;;;2.97;;
21546;SDS011;41275;51.912;4.388;2024-02-28T20:31:53;5.97;;;3.33;;
21546;SDS011;41275;51.912;4.388;2024-02-28T20:37:14;6.60;;;3.10;;
21546;SDS011;41275;51.912;4.388;2024-02-28T20:42:35;5.10;;;2.80;;
21546;SDS011;41275;51.912;4.388;2024-02-28T20:47:56;6.32;;;2.95;;
21546;SDS011;41275;51.912;4.388;2024-02-28T20:53:17;5.93;;;2.92;;
21546;SDS011;41275;51.912;4.388;2024-02-28T20:58:41;7.83;;;3.13;;
21546;SDS011;41275;51.912;4.388;2024-02-28T21:04:02;6.90;;;2.80;;
21546;SDS011;41275;51.912;4.388;2024-02-28T21:09:25;6.00;;;2.80;;
21546;SDS011;41275;51.912;4.388;2024-02-28T21:14:47;6.17;;;2.93;;
21546;SDS011;41275;51.912;4.388;2024-02-28T21:20:08;6.35;;;3.20;;
21546;SDS011;41275;51.912;4.388;2024-02-28T21:25:29;5.97;;;3.42;;
21546;SDS011;41275;51.912;4.388;2024-02-28T21:30:50;6.82;;;3.42;;
21546;SDS011;41275;51.912;4.388;2024-02-28T21:36:12;8.65;;;3.50;;
21546;SDS011;41275;51.912;4.388;2024-02-28T21:41:33;7.75;;;3.63;;
21546;SDS011;41275;51.912;4.388;2024-02-28T21:46:54;7.38;;;4.25;;
21546;SDS011;41275;51.912;4.388;2024-02-28T21:52:15;8.93;;;3.83;;
21546;SDS011;41275;51.912;4.388;2024-02-28T21:57:39;8.80;;;3.92;;
21546;SDS011;41275;51.912;4.388;2024-02-28T22:03:00;9.13;;;3.85;;
21546;SDS011;41275;51.912;4.388;2024-02-28T22:08:21;8.90;;;4.50;;
21546;SDS011;41275;51.912;4.388;2024-02-28T22:13:42;6.90;;;3.97;;
21546;SDS011;41275;51.912;4.388;2024-02-28T22:19:04;8.90;;;4.57;;
21546;SDS011;41275;51.912;4.388;2024-02-28T22:24:25;8.80;;;4.47;;
21546;SDS011;41275;51.912;4.388;2024-02-28T22:29:46;9.43;;;4.43;;
21546;SDS011;41275;51.912;4.388;2024-02-28T22:35:08;9.88;;;4.70;;
21546;SDS011;41275;51.912;4.388;2024-02-28T22:40:30;11.13;;;4.93;;
21546;SDS011;41275;51.912;4.388;2024-02-28T22:45:52;10.40;;;5.17;;
21546;SDS011;41275;51.912;4.388;2024-02-28T22:51:13;9.73;;;5.00;;
21546;SDS011;41275;51.912;4.388;2024-02-28T22:56:35;10.87;;;5.37;;
21546;SDS011;41275;51.912;4.388;2024-02-28T23:01:56;10.33;;;5.50;;
21546;SDS011;41275;51.912;4.388;2024-02-28T23:07:17;10.50;;;5.70;;
21546;SDS011;41275;51.912;4.388;2024-02-28T23:12:38;14.90;;;7.20;;
21546;SDS011;41275;51.912;4.388;2024-02-28T23:18:00;15.57;;;6.88;;
21546;SDS011;41275;51.912;4.388;2024-02-28T23:23:21;13.38;;;6.57;;
21546;SDS011;41275;51.912;4.388;2024-02-28T23:28:42;14.30;;;6.68;;
21546;SDS011;41275;51.912;4.388;2024-02-28T23:34:03;16.98;;;7.57;;
21546;SDS011;41275;51.912;4.388;2024-02-28T23:39:25;15.32;;;7.72;;
21546;SDS011;41275;51.912;4.388;2024-02-28T23:44:46;18.90;;;8.18;;
21546;SDS011;41275;51.912;4.388;2024-02-28T23:50:07;15.05;;;8.05;;
21546;SDS011;41275;51.912;4.388;2024-02-28T23:55:29;18.27;;;8.37;;
